createdAt,value
2018-12-19T00:00:19.607Z,-0.40
2018-12-19T00:02:48.735Z,-0.40
2018-12-19T00:05:18.399Z,-0.40
2018-12-19T00:07:47.603Z,-0.40
2018-12-19T00:10:16.703Z,-0.40
2018-12-19T00:12:45.691Z,-0.40
2018-12-19T00:15:14.664Z,-0.40
2018-12-19T00:17:43.599Z,-0.40
2018-12-19T00:20:12.592Z,-0.40
2018-12-19T00:22:41.691Z,-0.40
2018-12-19T00:25:11.032Z,-0.50
2018-12-19T00:27:40.414Z,-0.50
2018-12-19T00:30:10.047Z,-0.60
2018-12-19T00:32:39.577Z,-0.60
2018-12-19T00:35:08.552Z,-0.60
2018-12-19T00:37:37.631Z,-0.80
2018-12-19T00:40:07.055Z,-0.70
2018-12-19T00:42:36.311Z,-0.80
2018-12-19T00:45:05.419Z,-0.90
2018-12-19T00:47:34.557Z,-0.90
2018-12-19T00:50:05.087Z,-1.00
2018-12-19T00:52:34.199Z,-1.00
2018-12-19T00:55:04.459Z,-0.90
2018-12-19T00:57:33.579Z,-0.90
2018-12-19T01:00:03.427Z,-1.00
2018-12-19T01:02:32.579Z,-1.00
2018-12-19T01:05:01.772Z,-1.00
2018-12-19T01:07:30.925Z,-1.10
2018-12-19T01:10:00.615Z,-1.20
2018-12-19T01:12:30.863Z,-1.20
2018-12-19T01:14:59.857Z,-1.20
2018-12-19T01:17:29.061Z,-1.20
2018-12-19T01:19:58.771Z,-1.20
2018-12-19T01:22:27.769Z,-1.20
2018-12-19T01:24:57.585Z,-1.10
2018-12-19T01:27:26.784Z,-1.10
2018-12-19T01:29:55.985Z,-1.10
2018-12-19T01:32:24.982Z,-1.10
2018-12-19T01:34:54.592Z,-1.00
2018-12-19T01:37:23.895Z,-0.90
2018-12-19T01:39:52.890Z,-0.80
2018-12-19T01:42:22.708Z,-0.80
2018-12-19T01:44:52.015Z,-0.70
2018-12-19T01:47:21.635Z,-0.70
2018-12-19T01:49:50.718Z,-0.60
2018-12-19T01:52:19.795Z,-0.60
2018-12-19T01:54:48.787Z,-0.60
2018-12-19T01:57:17.743Z,-0.50
2018-12-19T01:59:47.066Z,-0.50
2018-12-19T02:02:16.109Z,-0.50
2018-12-19T02:04:45.743Z,-0.50
2018-12-19T02:07:14.843Z,-0.40
2018-12-19T02:09:45.220Z,-0.40
2018-12-19T02:12:14.963Z,-0.40
2018-12-19T02:14:44.883Z,-0.30
2018-12-19T02:17:14.178Z,-0.30
2018-12-19T02:19:43.277Z,-0.40
2018-12-19T02:22:12.477Z,-0.40
2018-12-19T02:24:41.575Z,-0.40
2018-12-19T02:27:10.572Z,-0.30
2018-12-19T02:29:40.389Z,-0.30
2018-12-19T02:32:09.384Z,-0.30
2018-12-19T02:34:38.893Z,-0.20
2018-12-19T02:37:07.990Z,-0.20
2018-12-19T02:39:36.985Z,-0.10
2018-12-19T02:42:06.189Z,-0.10
2018-12-19T02:44:35.235Z,-0.10
2018-12-19T02:47:04.285Z,0.00
2018-12-19T02:49:33.891Z,0.00
2018-12-19T02:52:03.093Z,0.10
2018-12-19T02:54:32.627Z,0.10
2018-12-19T02:57:01.699Z,0.10
2018-12-19T02:59:31.103Z,0.10
2018-12-19T03:02:00.304Z,0.10
2018-12-19T03:04:29.416Z,0.10
2018-12-19T03:06:58.372Z,0.20
2018-12-19T03:09:27.706Z,0.10
2018-12-19T03:11:56.964Z,0.10
2018-12-19T03:14:25.955Z,0.20
2018-12-19T03:16:55.151Z,0.20
2018-12-19T03:19:24.199Z,0.20
2018-12-19T03:21:53.399Z,0.20
2018-12-19T03:24:22.907Z,0.20
2018-12-19T03:26:51.903Z,0.30
2018-12-19T03:29:21.653Z,0.30
2018-12-19T03:31:50.722Z,0.30
2018-12-19T03:34:20.019Z,0.30
2018-12-19T03:36:50.037Z,0.30
2018-12-19T03:39:19.034Z,0.30
2018-12-19T03:41:48.476Z,0.30
2018-12-19T03:44:17.578Z,0.30
2018-12-19T03:46:46.905Z,0.20
2018-12-19T03:49:16.739Z,0.20
2018-12-19T03:51:46.060Z,0.20
2018-12-19T03:54:15.208Z,0.30
2018-12-19T03:56:44.571Z,0.30
2018-12-19T03:59:13.560Z,0.30
2018-12-19T04:01:42.529Z,0.30
2018-12-19T04:04:11.962Z,0.30
2018-12-19T04:06:41.063Z,0.40
2018-12-19T04:09:10.980Z,0.40
2018-12-19T04:11:39.978Z,0.40
2018-12-19T04:14:09.178Z,0.50
2018-12-19T04:16:38.324Z,0.50
2018-12-19T04:19:07.323Z,0.50
2018-12-19T04:21:36.320Z,0.50
2018-12-19T04:24:05.223Z,0.50
2018-12-19T04:26:34.292Z,0.50
2018-12-19T04:29:03.461Z,0.50
2018-12-19T04:31:32.459Z,0.50
2018-12-19T04:34:01.410Z,0.60
2018-12-19T04:36:30.654Z,0.60
2018-12-19T04:38:59.547Z,0.60
2018-12-19T04:41:28.537Z,0.60
2018-12-19T04:43:57.544Z,0.60
2018-12-19T04:46:26.524Z,0.70
2018-12-19T04:48:55.510Z,0.70
2018-12-19T04:51:24.740Z,0.70
2018-12-19T04:53:53.731Z,0.70
2018-12-19T04:56:23.544Z,0.80
2018-12-19T04:58:53.258Z,0.80
2018-12-19T05:01:22.332Z,0.80
2018-12-19T05:03:51.355Z,0.90
2018-12-19T05:06:20.423Z,0.90
2018-12-19T05:08:50.064Z,1.00
2018-12-19T05:11:19.162Z,1.00
2018-12-19T05:13:48.366Z,1.00
2018-12-19T05:16:17.312Z,1.00
2018-12-19T05:18:46.415Z,1.00
2018-12-19T05:21:15.383Z,1.00
2018-12-19T05:23:44.479Z,1.10
2018-12-19T05:26:13.751Z,1.10
2018-12-19T05:28:42.847Z,1.10
2018-12-19T05:31:11.840Z,1.10
2018-12-19T05:33:41.151Z,1.20
2018-12-19T05:36:10.903Z,1.20
2018-12-19T05:38:39.881Z,1.20
2018-12-19T05:41:08.958Z,1.20
2018-12-19T05:43:38.261Z,1.20
2018-12-19T05:46:07.258Z,1.30
2018-12-19T05:48:36.660Z,1.30
2018-12-19T05:51:05.759Z,1.30
2018-12-19T05:53:34.858Z,1.30
2018-12-19T05:56:03.879Z,1.30
2018-12-19T05:58:33.067Z,1.30
2018-12-19T06:01:02.143Z,1.30
2018-12-19T06:06:07.392Z,1.30
2018-12-19T06:08:36.613Z,1.30
2018-12-19T06:11:05.592Z,1.40
2018-12-19T06:13:34.812Z,1.40
2018-12-19T06:16:03.863Z,1.40
2018-12-19T06:18:32.973Z,1.40
2018-12-19T06:21:01.951Z,1.50
2018-12-19T06:23:31.306Z,1.50
2018-12-19T06:26:00.930Z,1.50
2018-12-19T06:28:30.039Z,1.60
2018-12-19T06:30:59.113Z,1.60
2018-12-19T06:33:28.211Z,1.60
2018-12-19T06:35:57.108Z,1.70
2018-12-19T06:38:26.103Z,1.70
2018-12-19T06:40:55.404Z,1.70
2018-12-19T06:43:24.809Z,1.70
2018-12-19T06:45:54.113Z,1.70
2018-12-19T06:48:23.015Z,1.80
2018-12-19T06:50:52.002Z,1.80
2018-12-19T06:53:21.100Z,1.80
2018-12-19T06:55:50.098Z,1.90
2018-12-19T06:58:19.812Z,1.90
2018-12-19T07:00:48.911Z,1.90
2018-12-19T07:03:18.518Z,1.90
2018-12-19T07:05:47.587Z,1.90
2018-12-19T07:08:16.509Z,2.00
2018-12-19T07:10:45.608Z,2.00
2018-12-19T07:13:14.605Z,2.00
2018-12-19T07:15:43.707Z,2.00
2018-12-19T07:18:13.007Z,2.10
2018-12-19T07:20:42.207Z,2.00
2018-12-19T07:23:11.613Z,1.90
2018-12-19T07:25:40.915Z,2.00
2018-12-19T07:28:10.200Z,1.90
2018-12-19T07:30:39.526Z,1.90
2018-12-19T07:33:08.635Z,1.80
2018-12-19T07:35:37.831Z,1.80
2018-12-19T07:38:07.024Z,1.90
2018-12-19T07:40:36.324Z,1.90
2018-12-19T07:43:06.037Z,1.90
2018-12-19T07:45:34.930Z,1.90
2018-12-19T07:48:04.336Z,1.90
2018-12-19T07:50:33.293Z,2.00
2018-12-19T07:53:02.807Z,2.00
2018-12-19T07:55:33.751Z,1.90
2018-12-19T07:58:02.879Z,1.90
2018-12-19T08:00:31.945Z,1.90
2018-12-19T08:03:01.101Z,1.80
2018-12-19T08:05:30.183Z,1.80
2018-12-19T08:07:59.784Z,1.90
2018-12-19T08:10:29.051Z,1.90
2018-12-19T08:12:58.011Z,1.90
2018-12-19T08:15:27.099Z,1.90
2018-12-19T08:17:56.278Z,1.90
2018-12-19T08:20:25.427Z,1.90
2018-12-19T08:22:54.474Z,1.80
2018-12-19T08:25:23.675Z,1.80
2018-12-19T08:27:52.796Z,1.80
2018-12-19T08:30:21.687Z,1.90
2018-12-19T08:32:50.970Z,1.90
2018-12-19T08:35:20.476Z,1.90
2018-12-19T08:37:49.678Z,2.00
2018-12-19T08:40:18.947Z,2.00
2018-12-19T08:42:47.979Z,2.10
2018-12-19T08:45:17.484Z,2.10
2018-12-19T08:47:46.377Z,2.00
2018-12-19T08:50:15.499Z,2.10
2018-12-19T08:52:44.787Z,2.10
2018-12-19T08:55:13.774Z,2.10
2018-12-19T08:57:42.772Z,2.10
2018-12-19T09:00:12.277Z,2.10
2018-12-19T09:02:41.239Z,2.10
2018-12-19T09:05:10.231Z,2.10
2018-12-19T09:07:39.368Z,2.20
2018-12-19T09:10:08.591Z,2.20
2018-12-19T09:12:37.563Z,2.20
2018-12-19T09:15:07.184Z,2.30
2018-12-19T09:17:36.477Z,2.30
2018-12-19T09:20:06.395Z,2.30
2018-12-19T09:22:35.389Z,2.40
2018-12-19T09:25:05.131Z,2.30
2018-12-19T09:27:34.220Z,2.40
2018-12-19T09:30:04.327Z,2.30
2018-12-19T09:32:33.521Z,2.40
2018-12-19T09:35:02.891Z,2.40
2018-12-19T09:37:33.119Z,2.40
2018-12-19T09:40:02.611Z,2.40
2018-12-19T09:42:31.511Z,2.50
2018-12-19T09:45:00.651Z,2.50
2018-12-19T09:47:29.615Z,2.50
2018-12-19T09:49:58.948Z,2.50
2018-12-19T09:52:28.355Z,2.50
2018-12-19T09:54:58.183Z,2.50
2018-12-19T09:57:27.388Z,2.50
2018-12-19T09:59:56.724Z,2.50
2018-12-19T10:02:25.699Z,2.50
2018-12-19T10:04:54.615Z,2.50
2018-12-19T10:07:23.861Z,2.50
2018-12-19T10:09:53.615Z,2.50
2018-12-19T10:12:22.603Z,2.50
2018-12-19T10:14:51.564Z,2.50
2018-12-19T10:17:20.531Z,2.50
2018-12-19T10:19:49.559Z,2.60
2018-12-19T10:22:21.679Z,2.60
2018-12-19T10:24:56.553Z,2.60
2018-12-19T10:27:25.698Z,2.60
2018-12-19T10:29:54.784Z,2.60
2018-12-19T10:32:24.054Z,2.60
2018-12-19T10:34:53.699Z,2.70
2018-12-19T10:37:23.002Z,2.70
2018-12-19T10:39:52.093Z,2.80
2018-12-19T10:42:21.183Z,2.80
2018-12-19T10:44:50.464Z,2.70
2018-12-19T10:47:19.463Z,2.80
2018-12-19T10:49:48.559Z,2.80
2018-12-19T10:52:17.619Z,2.80
2018-12-19T10:54:46.795Z,2.80
2018-12-19T10:57:15.779Z,2.70
2018-12-19T10:59:44.852Z,2.70
2018-12-19T11:02:14.191Z,2.70
2018-12-19T11:04:43.175Z,2.70
2018-12-19T11:07:12.823Z,2.70
2018-12-19T11:09:41.719Z,2.70
2018-12-19T11:12:10.751Z,2.70
2018-12-19T11:14:40.361Z,2.70
2018-12-19T11:17:09.630Z,2.70
2018-12-19T11:19:38.600Z,2.70
2018-12-19T11:22:09.573Z,2.80
2018-12-19T11:24:38.903Z,2.80
2018-12-19T11:27:07.897Z,2.80
2018-12-19T11:29:36.859Z,2.80
2018-12-19T11:32:05.835Z,2.80
2018-12-19T11:34:34.987Z,2.80
2018-12-19T11:37:03.943Z,2.80
2018-12-19T11:39:32.978Z,2.80
2018-12-19T11:42:01.973Z,2.80
2018-12-19T11:44:31.037Z,2.80
2018-12-19T11:47:00.887Z,2.80
2018-12-19T11:49:30.088Z,2.90
2018-12-19T11:51:59.185Z,2.80
2018-12-19T11:54:28.931Z,2.90
2018-12-19T11:56:58.098Z,2.90
2018-12-19T11:59:27.093Z,2.90
2018-12-19T12:01:56.293Z,2.90
2018-12-19T12:04:25.703Z,2.90
2018-12-19T12:06:54.799Z,2.90
2018-12-19T12:09:23.700Z,2.90
2018-12-19T12:11:53.275Z,2.90
2018-12-19T12:14:22.252Z,2.90
2018-12-19T12:16:51.151Z,2.90
2018-12-19T12:19:20.259Z,2.90
2018-12-19T12:21:49.231Z,2.90
2018-12-19T12:24:18.382Z,2.90
2018-12-19T12:26:47.379Z,2.90
2018-12-19T12:29:16.477Z,2.80
2018-12-19T12:31:45.778Z,2.80
2018-12-19T12:34:14.877Z,2.80
2018-12-19T12:36:43.839Z,2.70
2018-12-19T12:39:12.932Z,2.80
2018-12-19T12:41:42.172Z,2.80
2018-12-19T12:44:11.168Z,2.80
2018-12-19T12:46:40.061Z,2.80
2018-12-19T12:49:09.396Z,2.80
2018-12-19T12:51:39.076Z,2.80
2018-12-19T12:54:08.379Z,2.80
2018-12-19T12:56:37.377Z,2.80
2018-12-19T12:59:06.439Z,2.80
2018-12-19T13:01:35.469Z,2.80
2018-12-19T13:04:04.567Z,2.80
2018-12-19T13:06:33.709Z,2.90
2018-12-19T13:09:04.203Z,2.90
2018-12-19T13:11:33.396Z,2.90
2018-12-19T13:14:02.702Z,2.90
2018-12-19T13:16:32.291Z,2.90
2018-12-19T13:19:01.264Z,2.90
2018-12-19T13:21:30.552Z,2.80
2018-12-19T13:23:59.739Z,2.90
2018-12-19T13:26:28.839Z,2.80
2018-12-19T13:28:58.335Z,2.80
2018-12-19T13:31:27.291Z,2.80
2018-12-19T13:33:56.304Z,2.80
2018-12-19T13:36:25.250Z,2.80
2018-12-19T13:38:54.194Z,2.80
2018-12-19T13:41:23.189Z,2.70
2018-12-19T13:43:52.812Z,2.70
2018-12-19T13:46:22.423Z,2.70
2018-12-19T13:48:51.427Z,2.70
2018-12-19T13:51:20.608Z,2.90
2018-12-19T13:53:49.691Z,2.70
2018-12-19T13:56:19.035Z,2.70
2018-12-19T13:58:48.359Z,2.70
2018-12-19T14:01:17.615Z,2.70
2018-12-19T14:03:47.119Z,2.70
2018-12-19T14:06:16.117Z,2.70
2018-12-19T14:08:45.120Z,2.70
2018-12-19T14:11:14.106Z,2.70
2018-12-19T14:13:43.867Z,2.70
2018-12-19T14:16:12.831Z,2.70
2018-12-19T14:18:41.913Z,2.60
2018-12-19T14:21:11.735Z,2.70
2018-12-19T14:23:40.963Z,2.70
2018-12-19T14:26:10.231Z,2.70
2018-12-19T14:28:39.103Z,2.70
2018-12-19T14:31:09.041Z,2.70
2018-12-19T14:33:38.349Z,2.70
2018-12-19T14:36:07.291Z,2.70
2018-12-19T14:38:36.233Z,2.70
2018-12-19T14:41:05.288Z,2.70
2018-12-19T14:43:34.394Z,2.70
2018-12-19T14:46:03.375Z,2.70
2018-12-19T14:48:32.368Z,2.70
2018-12-19T14:51:01.620Z,2.70
2018-12-19T14:53:30.722Z,2.70
2018-12-19T14:56:00.226Z,2.70
2018-12-19T14:58:29.375Z,2.70
2018-12-19T15:00:58.394Z,2.70
2018-12-19T15:03:27.296Z,2.70
2018-12-19T15:05:56.826Z,2.70
2018-12-19T15:08:25.718Z,2.70
2018-12-19T15:10:55.371Z,2.70
2018-12-19T15:13:24.339Z,2.70
2018-12-19T15:15:58.907Z,2.70
2018-12-19T15:18:28.313Z,2.60
2018-12-19T15:20:57.759Z,2.60
2018-12-19T15:23:26.651Z,2.60
2018-12-19T15:25:55.749Z,2.70
2018-12-19T15:28:24.880Z,2.60
2018-12-19T15:30:54.823Z,2.70
2018-12-19T15:33:23.803Z,2.60
2018-12-19T15:35:53.169Z,2.70
2018-12-19T15:38:23.088Z,2.70
2018-12-19T15:40:52.185Z,2.70
2018-12-19T15:43:21.156Z,2.70
2018-12-19T15:45:50.176Z,2.70
2018-12-19T15:48:19.252Z,2.70
2018-12-19T15:50:48.379Z,2.70
2018-12-19T15:53:17.357Z,2.70
2018-12-19T15:55:46.435Z,2.70
2018-12-19T15:58:16.282Z,2.70
2018-12-19T16:00:45.381Z,2.70
2018-12-19T16:03:14.381Z,2.70
2018-12-19T16:05:43.579Z,2.70
2018-12-19T16:10:43.516Z,2.80
2018-12-19T16:13:12.716Z,2.70
2018-12-19T16:15:42.068Z,2.70
2018-12-19T16:18:11.075Z,2.70
2018-12-19T16:20:40.059Z,2.70
2018-12-19T16:23:09.109Z,2.70
2018-12-19T16:25:38.210Z,2.70
2018-12-19T16:28:07.306Z,2.70
2018-12-19T16:30:36.406Z,2.70
2018-12-19T16:33:06.004Z,2.70
2018-12-19T16:35:35.099Z,2.70
2018-12-19T16:38:04.737Z,2.70
2018-12-19T16:40:34.026Z,2.70
2018-12-19T16:43:02.974Z,2.70
2018-12-19T16:45:32.084Z,2.70
2018-12-19T16:48:01.219Z,2.80
2018-12-19T16:50:30.328Z,2.80
2018-12-19T16:52:59.418Z,2.80
2018-12-19T16:55:28.369Z,2.80
2018-12-19T16:57:57.339Z,2.80
2018-12-19T17:00:26.462Z,2.80
2018-12-19T17:02:55.607Z,2.80
2018-12-19T17:05:24.807Z,2.80
2018-12-19T17:07:53.751Z,2.90
2018-12-19T17:10:22.867Z,2.80
2018-12-19T17:12:52.972Z,2.90
2018-12-19T17:15:22.121Z,2.90
2018-12-19T17:17:51.075Z,2.90
2018-12-19T17:20:20.051Z,2.90
2018-12-19T17:22:49.111Z,2.90
2018-12-19T17:25:18.063Z,2.90
2018-12-19T17:27:47.205Z,2.90
2018-12-19T17:30:16.303Z,3.00
2018-12-19T17:32:45.391Z,3.00
2018-12-19T17:35:14.397Z,3.00
2018-12-19T17:37:43.395Z,3.00
2018-12-19T17:40:12.935Z,3.00
2018-12-19T17:42:42.822Z,3.00
2018-12-19T17:45:11.979Z,3.00
2018-12-19T17:47:41.118Z,3.00
2018-12-19T17:50:10.161Z,3.00
2018-12-19T17:52:39.139Z,3.00
2018-12-19T17:55:08.231Z,3.00
2018-12-19T17:57:37.135Z,3.00
2018-12-19T18:00:06.714Z,3.00
2018-12-19T18:02:35.811Z,3.00
2018-12-19T18:05:05.730Z,3.00
2018-12-19T18:07:34.834Z,3.00
2018-12-19T18:10:04.234Z,3.00
2018-12-19T18:12:33.128Z,3.10
2018-12-19T18:15:02.954Z,3.10
2018-12-19T18:17:32.055Z,3.10
2018-12-19T18:20:01.152Z,3.10
2018-12-19T18:22:30.260Z,3.10
2018-12-19T18:24:59.745Z,3.10
2018-12-19T18:27:29.459Z,3.10
2018-12-19T18:29:58.348Z,3.20
2018-12-19T18:32:27.862Z,3.20
2018-12-19T18:34:56.855Z,3.20
2018-12-19T18:37:26.057Z,3.20
2018-12-19T18:39:55.139Z,3.10
2018-12-19T18:42:24.623Z,3.20
2018-12-19T18:44:53.728Z,3.20
2018-12-19T18:47:22.819Z,3.20
2018-12-19T18:49:51.754Z,3.20
2018-12-19T18:52:20.956Z,3.20
2018-12-19T18:54:50.062Z,3.20
2018-12-19T18:57:19.153Z,3.20
2018-12-19T18:59:48.132Z,3.20
2018-12-19T19:02:17.255Z,3.20
2018-12-19T19:04:46.222Z,3.20
2018-12-19T19:07:15.343Z,3.20
2018-12-19T19:09:44.252Z,3.20
2018-12-19T19:12:13.439Z,3.20
2018-12-19T19:14:42.842Z,3.10
2018-12-19T19:17:11.941Z,3.10
2018-12-19T19:19:41.085Z,3.10
2018-12-19T19:22:10.195Z,3.20
2018-12-19T19:24:39.340Z,3.20
2018-12-19T19:27:08.673Z,3.20
2018-12-19T19:32:17.023Z,3.30
2018-12-19T19:34:46.171Z,3.30
2018-12-19T19:37:15.731Z,3.30
2018-12-19T19:39:44.847Z,3.40
2018-12-19T19:42:14.143Z,3.40
2018-12-19T19:44:43.204Z,3.40
2018-12-19T19:47:12.381Z,3.40
2018-12-19T19:49:41.583Z,3.40
2018-12-19T19:52:10.667Z,3.40
2018-12-19T19:54:39.639Z,3.50
2018-12-19T19:57:08.980Z,3.50
2018-12-19T19:59:38.078Z,3.50
2018-12-19T20:02:07.135Z,3.50
2018-12-19T20:04:36.278Z,3.50
2018-12-19T20:07:05.377Z,3.50
2018-12-19T20:09:34.646Z,3.50
2018-12-19T20:12:04.291Z,3.50
2018-12-19T20:14:33.589Z,3.50
2018-12-19T20:17:02.995Z,3.50
2018-12-19T20:19:31.994Z,3.50
2018-12-19T20:22:01.207Z,3.50
2018-12-19T20:24:30.290Z,3.50
2018-12-19T20:26:59.594Z,3.50
2018-12-19T20:29:28.685Z,3.50
2018-12-19T20:31:57.796Z,3.50
2018-12-19T20:34:27.614Z,3.50
2018-12-19T20:36:56.745Z,3.50
2018-12-19T20:39:26.208Z,3.50
2018-12-19T20:41:55.413Z,3.50
2018-12-19T20:44:24.713Z,3.50
2018-12-19T20:46:53.806Z,3.50
2018-12-19T20:49:23.527Z,3.50
2018-12-19T20:51:52.472Z,3.50
2018-12-19T20:54:21.594Z,3.50
2018-12-19T20:56:50.756Z,3.50
2018-12-19T20:59:19.930Z,3.50
2018-12-19T21:01:49.159Z,3.50
2018-12-19T21:04:18.274Z,3.50
2018-12-19T21:06:47.314Z,3.60
2018-12-19T21:09:16.516Z,3.50
2018-12-19T21:11:45.887Z,3.60
2018-12-19T21:14:15.118Z,3.60
2018-12-19T21:16:50.051Z,3.60
2018-12-19T21:19:19.167Z,3.60
2018-12-19T21:21:48.276Z,3.60
2018-12-19T21:24:17.347Z,3.60
2018-12-19T21:26:46.342Z,3.60
2018-12-19T21:29:15.338Z,3.70
2018-12-19T21:31:44.640Z,3.70
2018-12-19T21:34:13.743Z,3.70
2018-12-19T21:36:42.840Z,3.70
2018-12-19T21:39:11.959Z,3.70
2018-12-19T21:41:41.080Z,3.70
2018-12-19T21:44:10.337Z,3.70
2018-12-19T21:46:39.372Z,3.70
2018-12-19T21:49:08.519Z,3.80
2018-12-19T21:51:37.837Z,3.70
2018-12-19T21:54:07.446Z,3.70
2018-12-19T21:56:37.569Z,3.70
2018-12-19T21:59:06.669Z,3.70
2018-12-19T22:01:35.711Z,3.70
2018-12-19T22:04:04.832Z,3.70
2018-12-19T22:06:34.015Z,3.70
2018-12-19T22:09:06.897Z,3.70
2018-12-19T22:11:36.048Z,3.60
2018-12-19T22:14:05.453Z,3.70
2018-12-19T22:16:40.185Z,3.70
2018-12-19T22:19:09.314Z,3.70
2018-12-19T22:21:39.302Z,3.70
2018-12-19T22:24:09.016Z,3.60
2018-12-19T22:26:38.318Z,3.60
2018-12-19T22:29:07.694Z,3.60
2018-12-19T22:31:36.920Z,3.60
2018-12-19T22:34:06.235Z,3.60
2018-12-19T22:36:35.441Z,3.70
2018-12-19T22:39:07.763Z,3.70
2018-12-19T22:41:36.915Z,3.70
2018-12-19T22:44:08.088Z,3.60
2018-12-19T22:46:37.254Z,3.70
2018-12-19T22:49:06.463Z,3.70
2018-12-19T22:51:35.719Z,3.60
2018-12-19T22:54:05.334Z,3.60
2018-12-19T22:56:34.453Z,3.60
2018-12-19T22:59:03.696Z,3.60
2018-12-19T23:01:39.615Z,3.60
2018-12-19T23:04:08.808Z,3.60
2018-12-19T23:06:37.909Z,3.60
2018-12-19T23:09:07.136Z,3.60
2018-12-19T23:11:36.358Z,3.50
2018-12-19T23:14:05.612Z,3.50
2018-12-19T23:16:35.017Z,3.50
2018-12-19T23:19:05.187Z,3.50
2018-12-19T23:21:34.286Z,3.50
2018-12-19T23:24:03.383Z,3.50
2018-12-19T23:26:32.587Z,3.50
2018-12-19T23:29:02.791Z,3.40
2018-12-19T23:31:32.214Z,3.40
2018-12-19T23:34:01.264Z,3.50
2018-12-19T23:36:30.770Z,3.40
2018-12-19T23:39:00.855Z,3.40
2018-12-19T23:41:30.969Z,3.40
2018-12-19T23:44:00.241Z,3.40
2018-12-19T23:46:31.573Z,3.30
2018-12-19T23:49:01.127Z,3.30
2018-12-19T23:51:30.236Z,3.30
2018-12-19T23:53:59.275Z,3.40
2018-12-19T23:56:28.472Z,3.40
2018-12-19T23:58:57.570Z,3.40
